Time,TemperatureF,DewpointF,PressureIn,WindDirection,WindDirectionDegrees,WindSpeedMPH,WindSpeedGustMPH,Humidity,HourlyPrecipIn,Conditions,Clouds,dailyrainin,SoftwareType,DateUTC
2013-02-21 19:29:00,24.4,-8.9,29.68,NW,318,3.6,3.6,22,0.00,,CLR,0.00,VWS V14.00,2013-02-22 00:29:00,
2013-02-21 19:34:00,24.4,-8.9,29.71,NNW,332,0.0,8.1,22,0.00,,CLR,0.00,VWS V14.00,2013-02-22 00:34:00,
2013-02-21 19:39:00,24.3,-9.1,29.71,NNW,335,9.6,12.3,22,0.00,,CLR,0.00,VWS V14.00,2013-02-22 00:39:00,
2013-02-21 19:44:00,23.9,-9.4,29.71,NNW,337,4.0,9.6,22,0.00,,CLR,0.00,VWS V14.00,2013-02-22 00:44:00,
2013-02-21 19:49:00,23.7,-9.6,29.74,NW,307,3.6,9.6,22,0.00,,CLR,0.00,VWS V14.00,2013-02-22 00:49:00,
2013-02-21 19:54:00,23.5,-9.7,29.74,WSW,239,0.0,9.6,22,0.00,,CLR,0.00,VWS V14.00,2013-02-22 00:54:00,
2013-02-21 19:59:00,23.5,-9.7,29.74,North,357,2.7,9.6,22,0.00,,CLR,0.00,VWS V14.00,2013-02-22 00:59:00,
2013-02-21 20:04:00,23.4,-9.9,29.74,WNW,285,5.4,11.0,22,0.00,,CLR,0.00,VWS V14.00,2013-02-22 01:04:00,
2013-02-21 20:09:00,23.4,-9.9,29.74,East,96,2.2,13.6,22,0.00,,CLR,0.00,VWS V14.00,2013-02-22 01:09:00,
2013-02-21 20:14:00,23.2,-10.0,29.74,WNW,290,3.1,13.6,22,0.00,,CLR,0.00,VWS V14.00,2013-02-22 01:14:00,
2013-02-21 20:19:00,23.0,-10.2,29.77,NW,319,3.6,13.6,22,0.00,,CLR,0.00,VWS V14.00,2013-02-22 01:19:00,
2013-02-21 20:24:00,23.0,-10.2,29.77,North,0,3.6,8.1,22,0.00,,CLR,0.00,VWS V14.00,2013-02-22 01:24:00,
2013-02-21 20:29:00,22.8,-10.3,29.77,ENE,78,3.6,8.1,22,0.00,,CLR,0.00,VWS V14.00,2013-02-22 01:29:00,
2013-02-21 20:34:00,22.8,-10.3,29.77,North,9,2.7,8.1,22,0.00,,CLR,0.00,VWS V14.00,2013-02-22 01:34:00,
2013-02-21 20:39:00,22.6,-10.5,29.77,NW,316,4.0,8.1,22,0.00,,CLR,0.00,VWS V14.00,2013-02-22 01:39:00,
2013-02-21 20:44:00,22.6,-10.5,29.77,NNW,348,2.7,11.9,22,0.00,,CLR,0.00,VWS V14.00,2013-02-22 01:44:00,
2013-02-21 20:49:00,22.6,-10.5,29.77,WNW,302,3.6,11.9,22,0.00,,CLR,0.00,VWS V14.00,2013-02-22 01:49:00,
2013-02-21 20:54:00,22.6,-10.5,29.77,South,169,3.6,11.9,22,0.00,,CLR,0.00,VWS V14.00,2013-02-22 01:54:00,
2013-02-21 20:59:00,22.6,-10.5,29.77,WNW,295,5.8,12.8,22,0.00,,CLR,0.00,VWS V14.00,2013-02-22 01:59:00,
2013-02-21 21:04:00,22.5,-10.6,29.77,North,8,6.3,10.5,22,0.00,,CLR,0.00,VWS V14.00,2013-02-22 02:04:00,
2013-02-21 21:09:00,22.5,-10.6,29.77,West,265,5.4,13.2,22,0.00,,CLR,0.00,VWS V14.00,2013-02-22 02:09:00,
2013-02-21 21:14:00,22.5,-10.6,29.77,NNE,22,3.1,13.2,22,0.00,,CLR,0.00,VWS V14.00,2013-02-22 02:14:00,
2013-02-21 21:19:00,22.5,-10.6,29.80,North,6,7.2,17.9,22,0.00,,CLR,0.00,VWS V14.00,2013-02-22 02:19:00,
2013-02-21 21:24:00,22.5,-10.6,29.80,NE,56,0.0,8.7,22,0.00,,CLR,0.00,VWS V14.00,2013-02-22 02:24:00,
2013-02-21 21:29:00,22.3,-10.8,29.80,NNW,343,2.7,14.5,22,0.00,,CLR,0.00,VWS V14.00,2013-02-22 02:29:00,
2013-02-21 21:34:00,22.3,-10.8,29.77,North,7,3.6,14.5,22,0.00,,CLR,0.00,VWS V14.00,2013-02-22 02:34:00,
2013-02-21 21:39:00,22.3,-10.8,29.77,ESE,110,0.0,14.5,22,0.00,,CLR,0.00,VWS V14.00,2013-02-22 02:39:00,
2013-02-21 21:44:00,22.1,-10.9,29.77,North,0,6.3,8.7,22,0.00,,CLR,0.00,VWS V14.00,2013-02-22 02:44:00,
2013-02-21 21:49:00,22.1,-10.9,29.80,NW,314,3.1,8.7,22,0.00,,CLR,0.00,VWS V14.00,2013-02-22 02:49:00,
2013-02-21 21:54:00,22.1,-10.9,29.80,North,357,3.6,8.7,22,0.00,,CLR,0.00,VWS V14.00,2013-02-22 02:54:00,
2013-02-21 21:59:00,22.1,-10.9,29.80,ESE,111,0.0,11.4,22,0.00,,CLR,0.00,VWS V14.00,2013-02-22 02:59:00,
2013-02-21 22:04:00,21.9,-11.1,29.80,NNE,22,0.0,5.8,22,0.00,,CLR,0.00,VWS V14.00,2013-02-22 03:04:00,
2013-02-21 22:09:00,21.9,-11.1,29.80,NNE,18,2.7,5.8,22,0.00,,CLR,0.00,VWS V14.00,2013-02-22 03:09:00,
2013-02-21 22:14:00,21.9,-11.1,29.80,WSW,250,0.0,6.7,22,0.00,,CLR,0.00,VWS V14.00,2013-02-22 03:14:00,
2013-02-21 22:19:00,21.9,-11.1,29.80,East,81,0.0,6.7,22,0.00,,CLR,0.00,VWS V14.00,2013-02-22 03:19:00,
2013-02-21 22:24:00,21.9,-11.1,29.80,WNW,303,8.3,8.3,22,0.00,,CLR,0.00,VWS V14.00,2013-02-22 03:24:00,
2013-02-21 22:29:00,21.9,-11.1,29.80,WNW,292,0.0,8.3,22,0.00,,CLR,0.00,VWS V14.00,2013-02-22 03:29:00,
2013-02-21 22:34:00,21.9,-11.1,29.80,SSE,150,0.0,8.3,22,0.00,,CLR,0.00,VWS V14.00,2013-02-22 03:34:00,
2013-02-21 22:39:00,21.7,-11.2,29.80,SE,145,0.0,8.3,22,0.00,,CLR,0.00,VWS V14.00,2013-02-22 03:39:00,
2013-02-21 22:44:00,21.7,-11.2,29.80,North,0,0.0,2.2,22,0.00,,CLR,0.00,VWS V14.00,2013-02-22 03:44:00,
2013-02-21 22:49:00,21.7,-11.2,29.80,WNW,295,3.1,3.1,22,0.00,,CLR,0.00,VWS V14.00,2013-02-22 03:49:00,
2013-02-21 22:54:00,21.9,-11.1,29.80,WNW,302,2.7,4.0,22,0.00,,CLR,0.00,VWS V14.00,2013-02-22 03:54:00,
2013-02-21 22:59:00,21.9,-11.1,29.80,WNW,302,0.0,4.0,22,0.00,,CLR,0.00,VWS V14.00,2013-02-22 03:59:00,
2013-02-21 23:04:00,21.9,-11.1,29.80,NW,308,0.0,6.3,22,0.00,,CLR,0.00,VWS V14.00,2013-02-22 04:04:00,
2013-02-21 23:09:00,22.1,-10.9,29.80,West,279,3.1,6.3,22,0.00,,CLR,0.00,VWS V14.00,2013-02-22 04:09:00,
2013-02-21 23:14:00,22.1,-10.9,29.80,NW,307,0.0,6.3,22,0.00,,CLR,0.00,VWS V14.00,2013-02-22 04:14:00,
2013-02-21 23:19:00,22.1,-10.9,29.80,SE,138,2.7,6.3,22,0.00,,CLR,0.00,VWS V14.00,2013-02-22 04:19:00,
2013-02-21 23:24:00,22.1,-10.9,29.80,WNW,288,5.4,8.1,22,0.00,,CLR,0.00,VWS V14.00,2013-02-22 04:24:00,
2013-02-21 23:29:00,22.3,-10.8,29.80,NW,307,2.7,8.1,22,0.00,,CLR,0.00,VWS V14.00,2013-02-22 04:29:00,
2013-02-21 23:34:00,22.3,-10.8,29.80,North,0,3.1,8.1,22,0.00,,CLR,0.00,VWS V14.00,2013-02-22 04:34:00,
2013-02-21 23:39:00,22.3,-10.8,29.80,WNW,298,5.8,8.1,22,0.00,,CLR,0.00,VWS V14.00,2013-02-22 04:39:00,
2013-02-21 23:44:00,22.3,-10.8,29.80,NW,323,2.7,8.1,22,0.00,,CLR,0.00,VWS V14.00,2013-02-22 04:44:00,
2013-02-21 23:49:00,22.3,-10.8,29.80,NNW,329,4.0,8.3,22,0.00,,CLR,0.00,VWS V14.00,2013-02-22 04:49:00,
2013-02-21 23:54:00,22.3,-10.8,29.80,NW,323,4.9,8.3,22,0.00,,CLR,0.00,VWS V14.00,2013-02-22 04:54:00,
2013-02-21 23:59:00,22.3,-10.8,29.80,NW,325,0.0,8.3,22,0.00,,CLR,0.00,VWS V14.00,2013-02-22 04:59:00,